sensor_id;sensor_type;location;lat;lon;timestamp;P1;durP1;ratioP1;P2;durP2;ratioP2
52106;SDS011;38105;52.968;5.974;2022-08-01T00:01:37;6.93;;;4.30;;
52106;SDS011;38105;52.968;5.974;2022-08-01T00:04:03;7.43;;;5.07;;
52106;SDS011;38105;52.968;5.974;2022-08-01T00:06:29;4.85;;;3.95;;
52106;SDS011;38105;52.968;5.974;2022-08-01T00:08:55;4.30;;;3.08;;
52106;SDS011;38105;52.968;5.974;2022-08-01T00:11:21;4.88;;;3.65;;
52106;SDS011;38105;52.968;5.974;2022-08-01T00:13:47;6.68;;;4.22;;
52106;SDS011;38105;52.968;5.974;2022-08-01T00:16:12;6.82;;;3.90;;
52106;SDS011;38105;52.968;5.974;2022-08-01T00:18:38;6.63;;;4.35;;
52106;SDS011;38105;52.968;5.974;2022-08-01T00:21:03;6.93;;;4.65;;
52106;SDS011;38105;52.968;5.974;2022-08-01T00:23:29;5.45;;;4.43;;
52106;SDS011;38105;52.968;5.974;2022-08-01T00:25:55;5.65;;;4.57;;
52106;SDS011;38105;52.968;5.974;2022-08-01T00:28:21;7.50;;;4.22;;
52106;SDS011;38105;52.968;5.974;2022-08-01T00:30:46;4.45;;;3.97;;
52106;SDS011;38105;52.968;5.974;2022-08-01T00:33:12;4.30;;;2.95;;
52106;SDS011;38105;52.968;5.974;2022-08-01T00:35:37;3.20;;;2.40;;
52106;SDS011;38105;52.968;5.974;2022-08-01T00:38:03;2.95;;;2.45;;
52106;SDS011;38105;52.968;5.974;2022-08-01T00:40:29;4.05;;;2.60;;
52106;SDS011;38105;52.968;5.974;2022-08-01T00:42:54;3.85;;;2.33;;
52106;SDS011;38105;52.968;5.974;2022-08-01T00:45:20;4.85;;;2.92;;
52106;SDS011;38105;52.968;5.974;2022-08-01T00:47:45;5.03;;;2.67;;
52106;SDS011;38105;52.968;5.974;2022-08-01T00:50:12;3.50;;;3.03;;
52106;SDS011;38105;52.968;5.974;2022-08-01T00:52:39;4.18;;;2.70;;
52106;SDS011;38105;52.968;5.974;2022-08-01T00:55:05;2.08;;;1.88;;
52106;SDS011;38105;52.968;5.974;2022-08-01T00:57:31;2.22;;;1.48;;
52106;SDS011;38105;52.968;5.974;2022-08-01T00:59:57;2.00;;;1.80;;
52106;SDS011;38105;52.968;5.974;2022-08-01T01:02:23;6.47;;;2.70;;
52106;SDS011;38105;52.968;5.974;2022-08-01T01:04:48;3.65;;;2.08;;
52106;SDS011;38105;52.968;5.974;2022-08-01T01:10:21;5.07;;;3.05;;
52106;SDS011;38105;52.968;5.974;2022-08-01T01:20:45;6.60;;;3.25;;
52106;SDS011;38105;52.968;5.974;2022-08-01T01:23:40;4.57;;;3.28;;
52106;SDS011;38105;52.968;5.974;2022-08-01T01:29:28;5.65;;;3.17;;
52106;SDS011;38105;52.968;5.974;2022-08-01T01:32:06;6.95;;;2.47;;
52106;SDS011;38105;52.968;5.974;2022-08-01T01:34:38;7.40;;;2.47;;
52106;SDS011;38105;52.968;5.974;2022-08-01T01:37:08;5.43;;;3.75;;
52106;SDS011;38105;52.968;5.974;2022-08-01T01:39:37;7.28;;;3.67;;
52106;SDS011;38105;52.968;5.974;2022-08-01T01:42:05;7.30;;;3.83;;
52106;SDS011;38105;52.968;5.974;2022-08-01T01:44:32;9.32;;;5.05;;
52106;SDS011;38105;52.968;5.974;2022-08-01T01:46:59;8.88;;;5.15;;
52106;SDS011;38105;52.968;5.974;2022-08-01T01:49:26;8.30;;;3.85;;
52106;SDS011;38105;52.968;5.974;2022-08-01T01:51:53;7.70;;;3.63;;
52106;SDS011;38105;52.968;5.974;2022-08-01T01:54:20;5.20;;;3.53;;
52106;SDS011;38105;52.968;5.974;2022-08-01T01:56:48;6.40;;;2.83;;
52106;SDS011;38105;52.968;5.974;2022-08-01T01:59:25;4.90;;;2.30;;
52106;SDS011;38105;52.968;5.974;2022-08-01T02:01:53;4.35;;;1.90;;
52106;SDS011;38105;52.968;5.974;2022-08-01T02:04:23;6.03;;;2.38;;
52106;SDS011;38105;52.968;5.974;2022-08-01T02:06:50;5.47;;;2.70;;
52106;SDS011;38105;52.968;5.974;2022-08-01T02:09:18;4.03;;;1.98;;
52106;SDS011;38105;52.968;5.974;2022-08-01T02:11:46;5.13;;;2.92;;
52106;SDS011;38105;52.968;5.974;2022-08-01T02:14:12;3.33;;;1.98;;
52106;SDS011;38105;52.968;5.974;2022-08-01T02:16:41;3.80;;;1.92;;
52106;SDS011;38105;52.968;5.974;2022-08-01T02:19:09;5.15;;;2.20;;
52106;SDS011;38105;52.968;5.974;2022-08-01T02:21:40;5.00;;;2.40;;
52106;SDS011;38105;52.968;5.974;2022-08-01T02:26:58;5.38;;;2.95;;
52106;SDS011;38105;52.968;5.974;2022-08-01T02:29:29;6.72;;;3.13;;
52106;SDS011;38105;52.968;5.974;2022-08-01T02:32:01;6.20;;;2.90;;
52106;SDS011;38105;52.968;5.974;2022-08-01T02:34:29;3.85;;;1.85;;
52106;SDS011;38105;52.968;5.974;2022-08-01T02:36:57;5.97;;;2.90;;
52106;SDS011;38105;52.968;5.974;2022-08-01T02:39:25;5.53;;;2.47;;
52106;SDS011;38105;52.968;5.974;2022-08-01T02:41:54;4.95;;;2.05;;
52106;SDS011;38105;52.968;5.974;2022-08-01T02:44:24;9.40;;;2.70;;
52106;SDS011;38105;52.968;5.974;2022-08-01T02:46:52;2.15;;;1.20;;
52106;SDS011;38105;52.968;5.974;2022-08-01T02:49:23;4.63;;;1.80;;
52106;SDS011;38105;52.968;5.974;2022-08-01T02:51:51;2.70;;;1.45;;
52106;SDS011;38105;52.968;5.974;2022-08-01T02:54:19;5.25;;;1.63;;
52106;SDS011;38105;52.968;5.974;2022-08-01T02:56:47;5.10;;;2.50;;
52106;SDS011;38105;52.968;5.974;2022-08-01T02:59:16;5.35;;;2.13;;
52106;SDS011;38105;52.968;5.974;2022-08-01T03:01:45;3.65;;;1.80;;
52106;SDS011;38105;52.968;5.974;2022-08-01T03:04:12;6.28;;;2.47;;
52106;SDS011;38105;52.968;5.974;2022-08-01T03:06:39;9.40;;;2.50;;
52106;SDS011;38105;52.968;5.974;2022-08-01T03:09:06;8.52;;;2.60;;
52106;SDS011;38105;52.968;5.974;2022-08-01T03:11:33;5.97;;;2.63;;
52106;SDS011;38105;52.968;5.974;2022-08-01T03:14:02;10.00;;;2.55;;
52106;SDS011;38105;52.968;5.974;2022-08-01T03:16:32;8.85;;;2.53;;
52106;SDS011;38105;52.968;5.974;2022-08-01T03:19:00;8.00;;;2.47;;
52106;SDS011;38105;52.968;5.974;2022-08-01T03:21:27;6.85;;;2.20;;
52106;SDS011;38105;52.968;5.974;2022-08-01T03:23:54;5.65;;;1.90;;
52106;SDS011;38105;52.968;5.974;2022-08-01T03:26:25;7.28;;;2.47;;
52106;SDS011;38105;52.968;5.974;2022-08-01T03:28:59;7.93;;;2.20;;
52106;SDS011;38105;52.968;5.974;2022-08-01T03:31:31;6.00;;;2.00;;
52106;SDS011;38105;52.968;5.974;2022-08-01T03:34:03;9.30;;;2.50;;
52106;SDS011;38105;52.968;5.974;2022-08-01T03:36:30;8.55;;;2.30;;
52106;SDS011;38105;52.968;5.974;2022-08-01T03:39:00;9.23;;;2.97;;
52106;SDS011;38105;52.968;5.974;2022-08-01T03:41:32;5.72;;;1.92;;
52106;SDS011;38105;52.968;5.974;2022-08-01T03:44:07;8.23;;;1.73;;
52106;SDS011;38105;52.968;5.974;2022-08-01T03:46:40;8.77;;;2.33;;
52106;SDS011;38105;52.968;5.974;2022-08-01T03:49:22;7.00;;;1.80;;
52106;SDS011;38105;52.968;5.974;2022-08-01T03:51:51;5.78;;;1.45;;
52106;SDS011;38105;52.968;5.974;2022-08-01T03:54:23;8.77;;;2.20;;
52106;SDS011;38105;52.968;5.974;2022-08-01T03:56:51;6.82;;;1.90;;
52106;SDS011;38105;52.968;5.974;2022-08-01T03:59:18;7.00;;;1.98;;
52106;SDS011;38105;52.968;5.974;2022-08-01T04:01:45;9.27;;;1.60;;
52106;SDS011;38105;52.968;5.974;2022-08-01T04:04:12;12.20;;;2.88;;
52106;SDS011;38105;52.968;5.974;2022-08-01T04:06:42;11.65;;;2.80;;
52106;SDS011;38105;52.968;5.974;2022-08-01T04:09:09;12.65;;;2.53;;
52106;SDS011;38105;52.968;5.974;2022-08-01T04:11:35;9.65;;;3.00;;
52106;SDS011;38105;52.968;5.974;2022-08-01T04:14:01;7.88;;;2.03;;
52106;SDS011;38105;52.968;5.974;2022-08-01T04:16:28;8.60;;;1.73;;
52106;SDS011;38105;52.968;5.974;2022-08-01T04:18:54;10.80;;;2.75;;
52106;SDS011;38105;52.968;5.974;2022-08-01T04:21:20;13.38;;;3.05;;
52106;SDS011;38105;52.968;5.974;2022-08-01T04:23:48;10.80;;;3.00;;
52106;SDS011;38105;52.968;5.974;2022-08-01T04:26:16;12.70;;;2.63;;
52106;SDS011;38105;52.968;5.974;2022-08-01T04:28:44;11.15;;;3.00;;
52106;SDS011;38105;52.968;5.974;2022-08-01T04:31:11;11.60;;;3.38;;
52106;SDS011;38105;52.968;5.974;2022-08-01T04:33:43;17.73;;;3.65;;
52106;SDS011;38105;52.968;5.974;2022-08-01T04:36:13;16.50;;;4.25;;
52106;SDS011;38105;52.968;5.974;2022-08-01T04:38:40;17.13;;;3.65;;
52106;SDS011;38105;52.968;5.974;2022-08-01T04:41:09;16.30;;;3.40;;
52106;SDS011;38105;52.968;5.974;2022-08-01T04:43:37;20.08;;;3.85;;
52106;SDS011;38105;52.968;5.974;2022-08-01T04:46:03;14.80;;;3.03;;
52106;SDS011;38105;52.968;5.974;2022-08-01T04:48:31;20.52;;;3.90;;
52106;SDS011;38105;52.968;5.974;2022-08-01T04:50:57;19.60;;;3.60;;
52106;SDS011;38105;52.968;5.974;2022-08-01T04:53:24;21.08;;;3.65;;
52106;SDS011;38105;52.968;5.974;2022-08-01T04:55:51;12.32;;;2.13;;
52106;SDS011;38105;52.968;5.974;2022-08-01T04:58:16;8.98;;;1.67;;
52106;SDS011;38105;52.968;5.974;2022-08-01T05:00:42;13.23;;;2.65;;
52106;SDS011;38105;52.968;5.974;2022-08-01T05:03:08;17.02;;;3.10;;
52106;SDS011;38105;52.968;5.974;2022-08-01T05:05:34;19.17;;;3.22;;
52106;SDS011;38105;52.968;5.974;2022-08-01T05:08:00;15.13;;;2.80;;
52106;SDS011;38105;52.968;5.974;2022-08-01T05:10:26;14.57;;;2.70;;
52106;SDS011;38105;52.968;5.974;2022-08-01T05:12:51;18.10;;;3.83;;
52106;SDS011;38105;52.968;5.974;2022-08-01T05:15:17;6.90;;;1.88;;
52106;SDS011;38105;52.968;5.974;2022-08-01T05:17:43;11.73;;;2.10;;
52106;SDS011;38105;52.968;5.974;2022-08-01T05:20:08;19.33;;;3.53;;
52106;SDS011;38105;52.968;5.974;2022-08-01T05:22:35;20.83;;;4.75;;
52106;SDS011;38105;52.968;5.974;2022-08-01T05:25:01;12.90;;;2.53;;
52106;SDS011;38105;52.968;5.974;2022-08-01T05:27:29;15.20;;;3.60;;
52106;SDS011;38105;52.968;5.974;2022-08-01T05:29:55;15.10;;;3.10;;
52106;SDS011;38105;52.968;5.974;2022-08-01T05:32:21;13.57;;;2.83;;
52106;SDS011;38105;52.968;5.974;2022-08-01T05:34:47;14.20;;;2.90;;
52106;SDS011;38105;52.968;5.974;2022-08-01T05:37:12;20.10;;;3.25;;
52106;SDS011;38105;52.968;5.974;2022-08-01T05:39:38;17.33;;;3.20;;
52106;SDS011;38105;52.968;5.974;2022-08-01T05:42:04;16.73;;;3.70;;
52106;SDS011;38105;52.968;5.974;2022-08-01T05:44:30;12.95;;;2.65;;
52106;SDS011;38105;52.968;5.974;2022-08-01T05:46:55;23.13;;;3.75;;
52106;SDS011;38105;52.968;5.974;2022-08-01T05:49:21;22.40;;;3.78;;
52106;SDS011;38105;52.968;5.974;2022-08-01T05:51:47;17.58;;;2.97;;
52106;SDS011;38105;52.968;5.974;2022-08-01T05:54:12;14.98;;;2.60;;
52106;SDS011;38105;52.968;5.974;2022-08-01T05:56:38;18.52;;;3.78;;
52106;SDS011;38105;52.968;5.974;2022-08-01T05:59:04;14.85;;;3.25;;
52106;SDS011;38105;52.968;5.974;2022-08-01T06:01:29;13.63;;;2.35;;
52106;SDS011;38105;52.968;5.974;2022-08-01T06:03:55;20.58;;;3.17;;
52106;SDS011;38105;52.968;5.974;2022-08-01T06:06:21;16.27;;;2.95;;
52106;SDS011;38105;52.968;5.974;2022-08-01T06:08:47;17.25;;;2.63;;
52106;SDS011;38105;52.968;5.974;2022-08-01T06:11:12;15.48;;;2.70;;
52106;SDS011;38105;52.968;5.974;2022-08-01T06:13:38;22.92;;;3.85;;
52106;SDS011;38105;52.968;5.974;2022-08-01T06:16:04;19.20;;;2.88;;
52106;SDS011;38105;52.968;5.974;2022-08-01T06:18:30;16.50;;;2.72;;
52106;SDS011;38105;52.968;5.974;2022-08-01T06:20:55;26.17;;;3.80;;
52106;SDS011;38105;52.968;5.974;2022-08-01T06:23:21;17.88;;;3.22;;
52106;SDS011;38105;52.968;5.974;2022-08-01T06:25:47;22.02;;;3.88;;
52106;SDS011;38105;52.968;5.974;2022-08-01T06:28:12;13.30;;;2.50;;
52106;SDS011;38105;52.968;5.974;2022-08-01T06:30:38;14.68;;;3.20;;
52106;SDS011;38105;52.968;5.974;2022-08-01T06:33:04;14.38;;;2.75;;
52106;SDS011;38105;52.968;5.974;2022-08-01T06:35:30;15.50;;;3.03;;
52106;SDS011;38105;52.968;5.974;2022-08-01T06:37:56;12.65;;;2.33;;
52106;SDS011;38105;52.968;5.974;2022-08-01T06:40:22;19.00;;;2.85;;
52106;SDS011;38105;52.968;5.974;2022-08-01T06:42:48;17.65;;;2.90;;
52106;SDS011;38105;52.968;5.974;2022-08-01T06:45:15;20.90;;;3.35;;
52106;SDS011;38105;52.968;5.974;2022-08-01T06:47:41;24.13;;;3.78;;
52106;SDS011;38105;52.968;5.974;2022-08-01T06:50:08;12.80;;;2.78;;
52106;SDS011;38105;52.968;5.974;2022-08-01T06:52:36;16.70;;;3.03;;
52106;SDS011;38105;52.968;5.974;2022-08-01T06:55:02;18.80;;;3.30;;
52106;SDS011;38105;52.968;5.974;2022-08-01T06:57:29;15.10;;;2.17;;
52106;SDS011;38105;52.968;5.974;2022-08-01T06:59:55;16.88;;;2.70;;
52106;SDS011;38105;52.968;5.974;2022-08-01T07:02:21;14.52;;;2.90;;
52106;SDS011;38105;52.968;5.974;2022-08-01T07:04:47;22.92;;;3.78;;
52106;SDS011;38105;52.968;5.974;2022-08-01T07:07:13;22.90;;;3.53;;
52106;SDS011;38105;52.968;5.974;2022-08-01T07:09:39;21.00;;;3.40;;
52106;SDS011;38105;52.968;5.974;2022-08-01T07:12:07;22.77;;;3.70;;
52106;SDS011;38105;52.968;5.974;2022-08-01T07:14:33;17.77;;;3.20;;
52106;SDS011;38105;52.968;5.974;2022-08-01T07:16:59;18.83;;;2.97;;
52106;SDS011;38105;52.968;5.974;2022-08-01T07:19:25;15.70;;;2.60;;
52106;SDS011;38105;52.968;5.974;2022-08-01T07:21:50;14.52;;;2.90;;
52106;SDS011;38105;52.968;5.974;2022-08-01T07:24:16;15.20;;;2.80;;
52106;SDS011;38105;52.968;5.974;2022-08-01T07:26:43;11.25;;;2.58;;
52106;SDS011;38105;52.968;5.974;2022-08-01T07:29:10;20.10;;;3.17;;
52106;SDS011;38105;52.968;5.974;2022-08-01T07:31:35;15.65;;;3.00;;
52106;SDS011;38105;52.968;5.974;2022-08-01T07:34:01;15.27;;;3.35;;
52106;SDS011;38105;52.968;5.974;2022-08-01T07:36:27;18.40;;;3.03;;
52106;SDS011;38105;52.968;5.974;2022-08-01T07:38:52;15.45;;;3.22;;
52106;SDS011;38105;52.968;5.974;2022-08-01T07:41:18;15.95;;;2.97;;
52106;SDS011;38105;52.968;5.974;2022-08-01T07:43:44;17.67;;;2.95;;
52106;SDS011;38105;52.968;5.974;2022-08-01T07:46:09;55.75;;;5.75;;
52106;SDS011;38105;52.968;5.974;2022-08-01T07:48:35;16.30;;;2.67;;
52106;SDS011;38105;52.968;5.974;2022-08-01T07:51:00;14.45;;;3.10;;
52106;SDS011;38105;52.968;5.974;2022-08-01T07:53:26;12.77;;;2.35;;
52106;SDS011;38105;52.968;5.974;2022-08-01T07:55:52;13.90;;;3.00;;
52106;SDS011;38105;52.968;5.974;2022-08-01T07:58:17;11.30;;;2.10;;
52106;SDS011;38105;52.968;5.974;2022-08-01T08:00:43;17.00;;;2.40;;
52106;SDS011;38105;52.968;5.974;2022-08-01T08:03:09;12.48;;;2.05;;
52106;SDS011;38105;52.968;5.974;2022-08-01T08:05:34;12.25;;;2.72;;
52106;SDS011;38105;52.968;5.974;2022-08-01T08:08:04;11.50;;;2.42;;
52106;SDS011;38105;52.968;5.974;2022-08-01T08:10:30;12.40;;;2.25;;
52106;SDS011;38105;52.968;5.974;2022-08-01T08:12:56;14.25;;;2.72;;
52106;SDS011;38105;52.968;5.974;2022-08-01T08:15:22;8.90;;;2.03;;
52106;SDS011;38105;52.968;5.974;2022-08-01T08:17:48;13.10;;;2.45;;
52106;SDS011;38105;52.968;5.974;2022-08-01T08:20:13;10.10;;;2.42;;
52106;SDS011;38105;52.968;5.974;2022-08-01T08:22:39;15.38;;;2.63;;
52106;SDS011;38105;52.968;5.974;2022-08-01T08:25:06;9.63;;;2.03;;
52106;SDS011;38105;52.968;5.974;2022-08-01T08:27:32;15.20;;;2.38;;
52106;SDS011;38105;52.968;5.974;2022-08-01T08:29:58;10.68;;;2.20;;
52106;SDS011;38105;52.968;5.974;2022-08-01T08:32:23;16.13;;;2.10;;
52106;SDS011;38105;52.968;5.974;2022-08-01T08:34:49;10.07;;;1.90;;
52106;SDS011;38105;52.968;5.974;2022-08-01T08:37:15;13.85;;;2.20;;
52106;SDS011;38105;52.968;5.974;2022-08-01T08:39:42;11.07;;;2.47;;
52106;SDS011;38105;52.968;5.974;2022-08-01T08:42:08;11.05;;;1.83;;
52106;SDS011;38105;52.968;5.974;2022-08-01T08:44:35;13.65;;;2.20;;
52106;SDS011;38105;52.968;5.974;2022-08-01T08:47:01;9.68;;;2.00;;
52106;SDS011;38105;52.968;5.974;2022-08-01T08:49:30;6.72;;;1.50;;
52106;SDS011;38105;52.968;5.974;2022-08-01T08:52:00;10.63;;;2.08;;
52106;SDS011;38105;52.968;5.974;2022-08-01T08:54:26;11.18;;;2.28;;
52106;SDS011;38105;52.968;5.974;2022-08-01T08:56:54;9.45;;;2.00;;
52106;SDS011;38105;52.968;5.974;2022-08-01T08:59:20;8.85;;;2.03;;
52106;SDS011;38105;52.968;5.974;2022-08-01T09:01:47;8.57;;;1.77;;
52106;SDS011;38105;52.968;5.974;2022-08-01T09:04:13;14.00;;;2.03;;
52106;SDS011;38105;52.968;5.974;2022-08-01T09:06:39;9.93;;;1.95;;
52106;SDS011;38105;52.968;5.974;2022-08-01T09:09:05;7.70;;;1.85;;
52106;SDS011;38105;52.968;5.974;2022-08-01T09:11:35;8.02;;;2.08;;
52106;SDS011;38105;52.968;5.974;2022-08-01T09:14:11;9.63;;;1.85;;
52106;SDS011;38105;52.968;5.974;2022-08-01T09:16:42;10.05;;;1.98;;
52106;SDS011;38105;52.968;5.974;2022-08-01T09:19:14;13.30;;;1.90;;
52106;SDS011;38105;52.968;5.974;2022-08-01T09:21:58;8.53;;;1.80;;
52106;SDS011;38105;52.968;5.974;2022-08-01T09:24:25;10.15;;;1.73;;
52106;SDS011;38105;52.968;5.974;2022-08-01T09:26:53;10.90;;;2.22;;
52106;SDS011;38105;52.968;5.974;2022-08-01T09:29:21;7.60;;;1.80;;
52106;SDS011;38105;52.968;5.974;2022-08-01T09:31:48;9.63;;;1.58;;
52106;SDS011;38105;52.968;5.974;2022-08-01T09:34:15;10.07;;;1.42;;
52106;SDS011;38105;52.968;5.974;2022-08-01T09:36:52;7.15;;;1.40;;
52106;SDS011;38105;52.968;5.974;2022-08-01T09:39:23;6.65;;;1.65;;
52106;SDS011;38105;52.968;5.974;2022-08-01T09:41:51;6.63;;;1.48;;
52106;SDS011;38105;52.968;5.974;2022-08-01T09:44:18;7.72;;;1.60;;
52106;SDS011;38105;52.968;5.974;2022-08-01T09:46:52;11.52;;;2.03;;
52106;SDS011;38105;52.968;5.974;2022-08-01T09:49:29;11.82;;;1.83;;
52106;SDS011;38105;52.968;5.974;2022-08-01T09:51:57;6.10;;;1.40;;
52106;SDS011;38105;52.968;5.974;2022-08-01T09:54:27;5.88;;;1.13;;
52106;SDS011;38105;52.968;5.974;2022-08-01T09:57:08;8.10;;;1.40;;
52106;SDS011;38105;52.968;5.974;2022-08-01T09:59:34;8.50;;;1.50;;
52106;SDS011;38105;52.968;5.974;2022-08-01T10:02:06;8.38;;;1.98;;
52106;SDS011;38105;52.968;5.974;2022-08-01T10:04:33;7.82;;;1.48;;
52106;SDS011;38105;52.968;5.974;2022-08-01T10:07:04;8.80;;;1.40;;
52106;SDS011;38105;52.968;5.974;2022-08-01T10:09:34;9.07;;;1.70;;
52106;SDS011;38105;52.968;5.974;2022-08-01T10:12:01;10.27;;;1.63;;
52106;SDS011;38105;52.968;5.974;2022-08-01T10:14:27;8.70;;;1.60;;
52106;SDS011;38105;52.968;5.974;2022-08-01T10:16:53;5.68;;;1.20;;
52106;SDS011;38105;52.968;5.974;2022-08-01T10:19:22;14.32;;;1.90;;
52106;SDS011;38105;52.968;5.974;2022-08-01T10:21:52;7.63;;;1.70;;
52106;SDS011;38105;52.968;5.974;2022-08-01T10:24:19;10.55;;;1.52;;
52106;SDS011;38105;52.968;5.974;2022-08-01T10:26:52;8.45;;;1.70;;
52106;SDS011;38105;52.968;5.974;2022-08-01T10:29:23;7.20;;;1.40;;
52106;SDS011;38105;52.968;5.974;2022-08-01T10:31:51;6.65;;;1.30;;
52106;SDS011;38105;52.968;5.974;2022-08-01T10:34:17;7.30;;;1.30;;
52106;SDS011;38105;52.968;5.974;2022-08-01T10:36:45;7.05;;;1.60;;
52106;SDS011;38105;52.968;5.974;2022-08-01T10:39:12;6.90;;;1.50;;
52106;SDS011;38105;52.968;5.974;2022-08-01T10:41:39;9.65;;;1.65;;
52106;SDS011;38105;52.968;5.974;2022-08-01T10:44:08;9.00;;;1.48;;
52106;SDS011;38105;52.968;5.974;2022-08-01T10:46:39;6.13;;;1.33;;
52106;SDS011;38105;52.968;5.974;2022-08-01T10:49:10;7.63;;;1.42;;
52106;SDS011;38105;52.968;5.974;2022-08-01T10:51:38;9.07;;;1.73;;
52106;SDS011;38105;52.968;5.974;2022-08-01T10:54:06;8.45;;;1.70;;
52106;SDS011;38105;52.968;5.974;2022-08-01T10:56:39;9.88;;;1.40;;
52106;SDS011;38105;52.968;5.974;2022-08-01T10:59:08;5.43;;;1.20;;
52106;SDS011;38105;52.968;5.974;2022-08-01T11:01:33;6.63;;;1.25;;
52106;SDS011;38105;52.968;5.974;2022-08-01T11:09:03;8.48;;;1.13;;
52106;SDS011;38105;52.968;5.974;2022-08-01T11:14:22;8.20;;;1.15;;
52106;SDS011;38105;52.968;5.974;2022-08-01T11:16:48;6.63;;;1.10;;
52106;SDS011;38105;52.968;5.974;2022-08-01T11:19:13;5.43;;;1.10;;
52106;SDS011;38105;52.968;5.974;2022-08-01T11:24:26;9.60;;;1.20;;
52106;SDS011;38105;52.968;5.974;2022-08-01T11:30:17;4.68;;;1.15;;
52106;SDS011;38105;52.968;5.974;2022-08-01T11:35:10;5.13;;;1.00;;
52106;SDS011;38105;52.968;5.974;2022-08-01T11:37:36;5.40;;;1.00;;
52106;SDS011;38105;52.968;5.974;2022-08-01T11:45:49;5.90;;;0.88;;
52106;SDS011;38105;52.968;5.974;2022-08-01T11:48:23;11.02;;;1.25;;
52106;SDS011;38105;52.968;5.974;2022-08-01T11:50:53;5.85;;;0.85;;
52106;SDS011;38105;52.968;5.974;2022-08-01T11:53:20;7.55;;;1.33;;
52106;SDS011;38105;52.968;5.974;2022-08-01T11:55:47;7.68;;;0.98;;
52106;SDS011;38105;52.968;5.974;2022-08-01T11:58:15;8.23;;;1.23;;
52106;SDS011;38105;52.968;5.974;2022-08-01T12:00:55;7.15;;;1.15;;
52106;SDS011;38105;52.968;5.974;2022-08-01T12:03:25;6.63;;;1.23;;
52106;SDS011;38105;52.968;5.974;2022-08-01T12:05:56;6.10;;;1.05;;
52106;SDS011;38105;52.968;5.974;2022-08-01T12:08:26;9.00;;;1.63;;
52106;SDS011;38105;52.968;5.974;2022-08-01T12:10:52;6.07;;;0.98;;
52106;SDS011;38105;52.968;5.974;2022-08-01T12:13:18;6.85;;;1.30;;
52106;SDS011;38105;52.968;5.974;2022-08-01T12:15:45;7.80;;;1.52;;
52106;SDS011;38105;52.968;5.974;2022-08-01T12:18:11;6.45;;;1.02;;
52106;SDS011;38105;52.968;5.974;2022-08-01T12:20:39;11.65;;;1.48;;
52106;SDS011;38105;52.968;5.974;2022-08-01T12:23:08;6.00;;;1.02;;
52106;SDS011;38105;52.968;5.974;2022-08-01T12:25:36;4.72;;;1.10;;
52106;SDS011;38105;52.968;5.974;2022-08-01T12:28:05;8.23;;;1.15;;
52106;SDS011;38105;52.968;5.974;2022-08-01T12:30:33;6.45;;;1.05;;
52106;SDS011;38105;52.968;5.974;2022-08-01T12:33:00;4.43;;;1.02;;
52106;SDS011;38105;52.968;5.974;2022-08-01T12:35:29;6.88;;;1.30;;
52106;SDS011;38105;52.968;5.974;2022-08-01T12:37:56;8.20;;;1.08;;
52106;SDS011;38105;52.968;5.974;2022-08-01T12:40:30;7.00;;;1.13;;
52106;SDS011;38105;52.968;5.974;2022-08-01T12:42:58;4.88;;;0.95;;
52106;SDS011;38105;52.968;5.974;2022-08-01T12:45:36;6.00;;;1.10;;
52106;SDS011;38105;52.968;5.974;2022-08-01T12:48:08;5.55;;;1.10;;
52106;SDS011;38105;52.968;5.974;2022-08-01T12:50:37;9.13;;;1.38;;
52106;SDS011;38105;52.968;5.974;2022-08-01T12:53:04;5.88;;;1.42;;
52106;SDS011;38105;52.968;5.974;2022-08-01T12:55:30;7.45;;;1.35;;
52106;SDS011;38105;52.968;5.974;2022-08-01T12:58:03;5.32;;;0.90;;
52106;SDS011;38105;52.968;5.974;2022-08-01T13:00:30;7.10;;;0.98;;
52106;SDS011;38105;52.968;5.974;2022-08-01T13:03:09;9.27;;;1.27;;
52106;SDS011;38105;52.968;5.974;2022-08-01T13:08:20;8.27;;;1.20;;
52106;SDS011;38105;52.968;5.974;2022-08-01T13:10:47;7.18;;;1.00;;
52106;SDS011;38105;52.968;5.974;2022-08-01T13:13:14;6.90;;;0.90;;
52106;SDS011;38105;52.968;5.974;2022-08-01T13:15:43;6.43;;;0.98;;
52106;SDS011;38105;52.968;5.974;2022-08-01T13:18:25;8.15;;;1.35;;
52106;SDS011;38105;52.968;5.974;2022-08-01T13:23:37;6.70;;;1.15;;
52106;SDS011;38105;52.968;5.974;2022-08-01T13:26:04;5.40;;;0.80;;
52106;SDS011;38105;52.968;5.974;2022-08-01T13:28:29;6.53;;;0.77;;
52106;SDS011;38105;52.968;5.974;2022-08-01T13:31:00;6.97;;;1.20;;
52106;SDS011;38105;52.968;5.974;2022-08-01T13:33:42;6.50;;;1.05;;
52106;SDS011;38105;52.968;5.974;2022-08-01T13:36:10;8.65;;;0.93;;
52106;SDS011;38105;52.968;5.974;2022-08-01T13:38:36;6.78;;;1.27;;
52106;SDS011;38105;52.968;5.974;2022-08-01T13:41:22;5.40;;;1.13;;
52106;SDS011;38105;52.968;5.974;2022-08-01T13:43:48;7.55;;;1.20;;
52106;SDS011;38105;52.968;5.974;2022-08-01T13:46:14;6.72;;;1.30;;
52106;SDS011;38105;52.968;5.974;2022-08-01T13:48:40;4.32;;;0.80;;
52106;SDS011;38105;52.968;5.974;2022-08-01T13:51:06;6.22;;;1.10;;
52106;SDS011;38105;52.968;5.974;2022-08-01T13:53:32;6.25;;;1.40;;
52106;SDS011;38105;52.968;5.974;2022-08-01T13:55:57;7.07;;;0.95;;
52106;SDS011;38105;52.968;5.974;2022-08-01T13:58:23;4.55;;;0.85;;
52106;SDS011;38105;52.968;5.974;2022-08-01T14:00:49;7.15;;;1.23;;
52106;SDS011;38105;52.968;5.974;2022-08-01T14:03:14;5.25;;;0.98;;
52106;SDS011;38105;52.968;5.974;2022-08-01T14:05:42;12.40;;;1.00;;
52106;SDS011;38105;52.968;5.974;2022-08-01T14:08:08;6.72;;;1.00;;
52106;SDS011;38105;52.968;5.974;2022-08-01T14:10:34;5.70;;;1.08;;
52106;SDS011;38105;52.968;5.974;2022-08-01T14:13:00;8.35;;;1.20;;
52106;SDS011;38105;52.968;5.974;2022-08-01T14:15:26;6.53;;;1.13;;
52106;SDS011;38105;52.968;5.974;2022-08-01T14:17:51;5.88;;;1.27;;
52106;SDS011;38105;52.968;5.974;2022-08-01T14:20:17;5.80;;;0.90;;
52106;SDS011;38105;52.968;5.974;2022-08-01T14:22:48;6.57;;;0.90;;
52106;SDS011;38105;52.968;5.974;2022-08-01T14:25:14;9.40;;;1.45;;
52106;SDS011;38105;52.968;5.974;2022-08-01T14:27:39;6.93;;;1.15;;
52106;SDS011;38105;52.968;5.974;2022-08-01T14:30:07;4.68;;;0.95;;
52106;SDS011;38105;52.968;5.974;2022-08-01T14:32:33;7.00;;;0.90;;
52106;SDS011;38105;52.968;5.974;2022-08-01T14:35:00;7.28;;;1.08;;
52106;SDS011;38105;52.968;5.974;2022-08-01T14:37:27;5.18;;;1.05;;
52106;SDS011;38105;52.968;5.974;2022-08-01T14:39:54;5.65;;;0.98;;
52106;SDS011;38105;52.968;5.974;2022-08-01T14:42:20;7.97;;;1.00;;
52106;SDS011;38105;52.968;5.974;2022-08-01T14:44:45;5.38;;;0.90;;
52106;SDS011;38105;52.968;5.974;2022-08-01T14:47:11;5.35;;;1.08;;
52106;SDS011;38105;52.968;5.974;2022-08-01T14:49:37;4.38;;;0.70;;
52106;SDS011;38105;52.968;5.974;2022-08-01T14:52:02;6.18;;;1.10;;
52106;SDS011;38105;52.968;5.974;2022-08-01T14:54:28;8.98;;;1.05;;
52106;SDS011;38105;52.968;5.974;2022-08-01T14:56:54;7.45;;;1.17;;
52106;SDS011;38105;52.968;5.974;2022-08-01T14:59:19;5.72;;;1.33;;
52106;SDS011;38105;52.968;5.974;2022-08-01T15:01:45;4.95;;;1.00;;
52106;SDS011;38105;52.968;5.974;2022-08-01T15:04:11;6.45;;;1.13;;
52106;SDS011;38105;52.968;5.974;2022-08-01T15:06:37;9.30;;;1.50;;
52106;SDS011;38105;52.968;5.974;2022-08-01T15:09:03;4.65;;;0.73;;
52106;SDS011;38105;52.968;5.974;2022-08-01T15:11:29;5.72;;;0.90;;
52106;SDS011;38105;52.968;5.974;2022-08-01T15:13:54;4.80;;;0.98;;
52106;SDS011;38105;52.968;5.974;2022-08-01T15:16:39;5.00;;;0.95;;
52106;SDS011;38105;52.968;5.974;2022-08-01T15:19:04;5.43;;;1.15;;
52106;SDS011;38105;52.968;5.974;2022-08-01T15:21:30;8.75;;;1.23;;
52106;SDS011;38105;52.968;5.974;2022-08-01T15:23:56;5.55;;;0.95;;
52106;SDS011;38105;52.968;5.974;2022-08-01T15:26:24;6.75;;;1.02;;
52106;SDS011;38105;52.968;5.974;2022-08-01T15:28:50;8.30;;;0.95;;
52106;SDS011;38105;52.968;5.974;2022-08-01T15:31:16;6.38;;;0.95;;